Portada
METAR-TAF:

METAR-TAF

Aeroports :

Lamoni Municipal Airport

Lamoni, Iowa, Estats Units d'Amèrica

latitud: 40-37-50N, longitud: 093-54-03W, altitud: 344 m

Observació

L'informe es va fer fa 48 minuts, a les 10:53 UTC
Vent 6 kt del Nord-Oest
Temperatura -17°C
Humitat 84%
Pressió 1036 hPa
Visibilitat: 16.1 km
Cel clar

METAR: KLWD 121053Z AUTO 32006KT 10SM CLR M17/M19 A3060 RMK AO2 SLP387 I1000 T11721194

Hora: 05:41 (11:41 UTC)


TAF: manca

Observacions i pronòstics meteorològics de més de 4000 aeroports (METAR i TAF).

Les estacions disponibles són els punts grocs i vermells al mapa.

Posi el ratolí al punt desitjat per veure el nom de l'estació.

Feu clic per veure les observacions i els pronòstics meteorològics.

Per canviar el mapa: feu clic els botons verds amb una creu de color negre per apropar; al botó verd amb un guió per allunyar la imatge; o en les fletxes verdes per a mapes adjacents.


METAR-TAF: